Time;durP1;ratioP1;P1;durP2;ratioP2;P2;SDS_P1;SDS_P2;PMS_P1;PMS_P2;Temp;Humidity;BMP_temperature;BMP_pressure;BME280_temperature;BME280_humidity;BME280_pressure;Samples;Min_cycle;Max_cycle;Signal;HPM_P1;HPM_P2
2022/10/09 00:00:39;;;;;;;0.10;0.10;;;9.00;99.90;;;;;;5030959;28;20223;-80
2022/10/09 00:03:04;;;;;;;0.00;0.00;;;9.10;99.90;;;;;;5032563;28;20201;-80
2022/10/09 00:05:30;;;;;;;0.10;0.10;;;9.10;99.90;;;;;;5030653;28;20639;-79
2022/10/09 00:07:55;;;;;;;0.00;0.00;;;9.10;99.90;;;;;;5032822;28;20310;-80
2022/10/09 00:10:21;;;;;;;0.10;0.10;;;9.00;99.90;;;;;;5032350;28;20311;-80
2022/10/09 00:12:47;;;;;;;0.00;0.00;;;8.80;99.90;;;;;;5030922;28;20685;-80
2022/10/09 00:15:12;;;;;;;0.00;0.00;;;8.70;99.90;;;;;;5029411;28;20619;-80
2022/10/09 00:17:38;;;;;;;0.07;0.07;;;8.60;99.90;;;;;;5031704;28;20203;-80
2022/10/09 00:20:04;;;;;;;0.10;0.10;;;8.40;99.90;;;;;;5034953;28;20239;-80
2022/10/09 00:22:30;;;;;;;0.10;0.10;;;8.40;99.90;;;;;;5032906;28;20276;-80
2022/10/09 00:24:56;;;;;;;0.10;0.10;;;8.30;99.90;;;;;;5032068;28;20261;-80
2022/10/09 00:27:22;;;;;;;0.00;0.00;;;8.40;99.90;;;;;;5032252;28;20736;-80
2022/10/09 00:29:48;;;;;;;0.10;0.10;;;8.40;99.90;;;;;;5047593;28;20861;-80
2022/10/09 00:32:13;;;;;;;0.00;0.00;;;8.40;99.90;;;;;;5032750;28;20217;-80
2022/10/09 00:34:39;;;;;;;0.10;0.10;;;8.40;99.90;;;;;;5034753;28;20180;-80
2022/10/09 00:37:04;;;;;;;0.10;0.10;;;8.20;99.90;;;;;;5037312;28;20186;-80
2022/10/09 00:39:30;;;;;;;0.10;0.10;;;8.10;99.90;;;;;;5034449;28;20201;-80
2022/10/09 00:41:55;;;;;;;0.00;0.00;;;8.10;99.90;;;;;;5034528;28;21151;-80
2022/10/09 00:44:46;;;;;;;0.00;0.00;;;8.10;99.90;;;;;;5034389;28;20207;-80
2022/10/09 00:47:23;;;;;;;0.10;0.10;;;8.10;99.90;;;;;;5034250;28;20200;-80
2022/10/09 00:49:56;;;;;;;0.10;0.10;;;8.10;99.90;;;;;;5034676;28;20190;-80
2022/10/09 00:52:23;;;;;;;0.10;0.10;;;8.00;99.90;;;;;;5037180;28;20595;-80
2022/10/09 00:54:49;;;;;;;0.03;0.03;;;7.80;99.90;;;;;;5035920;28;20206;-80
2022/10/09 00:57:15;;;;;;;0.00;0.00;;;7.80;99.90;;;;;;5035110;28;20200;-80
2022/10/09 00:59:41;;;;;;;0.07;0.07;;;7.60;99.90;;;;;;5035555;28;20205;-80
2022/10/09 01:02:06;;;;;;;0.00;0.00;;;7.60;99.90;;;;;;5036744;28;20311;-80
2022/10/09 01:04:32;;;;;;;0.00;0.00;;;7.60;99.90;;;;;;5035932;28;20215;-80
2022/10/09 01:07:21;;;;;;;0.03;0.03;;;7.70;99.90;;;;;;5037158;28;20192;-80
2022/10/09 01:09:54;;;;;;;0.10;0.10;;;7.70;99.90;;;;;;5034633;28;21117;-80
2022/10/09 01:12:48;;;;;;;0.10;0.10;;;7.80;99.90;;;;;;5035678;28;20225;-80
2022/10/09 01:15:25;;;;;;;0.00;0.00;;;7.60;99.90;;;;;;5036864;28;20170;-80
2022/10/09 01:17:54;;;;;;;0.00;0.00;;;7.50;99.90;;;;;;5036117;28;20209;-80
2022/10/09 01:20:36;;;;;;;0.10;0.10;;;7.40;99.90;;;;;;5035164;28;20275;-80
2022/10/09 01:23:53;;;;;;;0.10;0.10;;;7.40;99.90;;;;;;5034510;28;20179;-80
2022/10/09 01:26:52;;;;;;;0.07;0.07;;;7.30;99.90;;;;;;5019647;28;21070;-80
2022/10/09 01:29:20;;;;;;;0.10;0.10;;;7.30;99.90;;;;;;5034927;28;20215;-80
2022/10/09 01:31:48;;;;;;;0.10;0.10;;;7.30;99.90;;;;;;5034578;28;20327;-80
2022/10/09 01:34:16;;;;;;;0.07;0.07;;;7.40;99.90;;;;;;5033500;28;20187;-80
2022/10/09 01:36:43;;;;;;;0.00;0.00;;;7.40;99.90;;;;;;5034398;28;20213;-80
2022/10/09 01:39:15;;;;;;;0.10;0.10;;;7.40;99.90;;;;;;5033383;28;20206;-80
2022/10/09 01:41:42;;;;;;;0.10;0.10;;;7.30;99.90;;;;;;5031848;28;20217;-80
2022/10/09 01:44:34;;;;;;;0.07;0.07;;;7.30;99.90;;;;;;5033753;28;20186;-80
2022/10/09 01:47:00;;;;;;;0.00;0.00;;;7.20;99.90;;;;;;5030076;28;20190;-80
2022/10/09 01:49:39;;;;;;;0.00;0.00;;;7.20;99.90;;;;;;5033759;28;20232;-80
2022/10/09 01:52:25;;;;;;;0.10;0.10;;;7.20;99.90;;;;;;5032905;28;20219;-80
2022/10/09 01:54:58;;;;;;;0.00;0.00;;;7.20;99.90;;;;;;5033496;28;20266;-80
2022/10/09 01:57:35;;;;;;;0.07;0.07;;;7.20;99.90;;;;;;5034287;28;20219;-80
2022/10/09 02:00:06;;;;;;;0.10;0.10;;;7.10;99.90;;;;;;5034186;28;20183;-80
2022/10/09 02:02:32;;;;;;;0.00;0.00;;;7.10;99.90;;;;;;5035232;28;20198;-80
2022/10/09 02:04:58;;;;;;;0.00;0.00;;;7.10;99.90;;;;;;5034314;28;20196;-80
2022/10/09 02:07:24;;;;;;;0.10;0.10;;;7.10;99.90;;;;;;5036000;28;20229;-80
2022/10/09 02:09:50;;;;;;;0.10;0.10;;;7.20;99.90;;;;;;5033440;28;20192;-80
2022/10/09 02:12:17;;;;;;;0.00;0.00;;;7.10;99.90;;;;;;5035814;28;20203;-80
2022/10/09 02:14:43;;;;;;;0.10;0.10;;;7.10;99.90;;;;;;5032865;28;20214;-80
2022/10/09 02:17:13;;;;;;;0.10;0.10;;;7.10;99.90;;;;;;5034860;28;20706;-80
2022/10/09 02:19:44;;;;;;;0.10;0.10;;;7.20;99.90;;;;;;5031702;28;20205;-80
2022/10/09 02:22:17;;;;;;;0.00;0.00;;;7.20;99.90;;;;;;5034079;28;20207;-80
2022/10/09 02:24:43;;;;;;;0.00;0.00;;;7.30;99.90;;;;;;5034607;28;20188;-80
2022/10/09 02:27:12;;;;;;;0.10;0.10;;;7.30;99.90;;;;;;5035460;28;20265;-80
2022/10/09 02:29:40;;;;;;;0.10;0.10;;;7.40;99.90;;;;;;5032563;28;20214;-80
2022/10/09 02:32:05;;;;;;;0.10;0.10;;;7.30;99.90;;;;;;5033672;28;20206;-80
2022/10/09 02:34:31;;;;;;;0.00;0.00;;;7.30;99.90;;;;;;5034959;28;20219;-80
2022/10/09 02:36:56;;;;;;;0.10;0.10;;;7.30;99.90;;;;;;5033265;28;20178;-80
2022/10/09 02:39:22;;;;;;;0.00;0.00;;;7.30;99.90;;;;;;5048513;28;20273;-80
2022/10/09 02:41:48;;;;;;;0.00;0.00;;;7.30;99.90;;;;;;5032322;28;20196;-80
2022/10/09 02:44:13;;;;;;;0.10;0.10;;;7.30;99.90;;;;;;5035398;28;20184;-80
2022/10/09 02:46:39;;;;;;;0.10;0.10;;;7.40;99.90;;;;;;5033865;28;20195;-80
2022/10/09 02:49:05;;;;;;;0.00;0.00;;;7.30;99.90;;;;;;5035981;28;20198;-81
2022/10/09 02:51:31;;;;;;;0.03;0.03;;;7.30;99.90;;;;;;5036682;28;20228;-80
2022/10/09 02:53:58;;;;;;;0.10;0.10;;;7.30;99.90;;;;;;5037405;28;20175;-80
2022/10/09 02:56:24;;;;;;;0.00;0.00;;;7.20;99.90;;;;;;5037982;28;20203;-80
2022/10/09 02:58:50;;;;;;;0.10;0.10;;;7.10;99.90;;;;;;5036276;28;20198;-80
2022/10/09 03:01:16;;;;;;;0.10;0.10;;;7.10;99.90;;;;;;5037430;28;20239;-80
2022/10/09 03:03:41;;;;;;;0.00;0.00;;;7.00;99.90;;;;;;5036186;28;20282;-80
2022/10/09 03:06:10;;;;;;;0.10;0.10;;;7.10;99.90;;;;;;5035451;28;20185;-80
2022/10/09 03:08:38;;;;;;;0.00;0.00;;;7.10;99.90;;;;;;5034747;28;20213;-80
2022/10/09 03:11:03;;;;;;;0.10;0.10;;;7.00;99.90;;;;;;5033853;28;20817;-80
2022/10/09 03:13:29;;;;;;;0.10;0.10;;;7.10;99.90;;;;;;5034396;28;20176;-80
2022/10/09 03:16:04;;;;;;;0.00;0.00;;;7.10;99.90;;;;;;5034553;28;20564;-80
2022/10/09 03:18:30;;;;;;;0.00;0.00;;;7.10;99.90;;;;;;5032782;28;20201;-80
2022/10/09 03:20:56;;;;;;;0.00;0.00;;;7.10;99.90;;;;;;5033345;28;20528;-80
2022/10/09 03:23:22;;;;;;;0.10;0.10;;;7.00;99.90;;;;;;5032924;28;21213;-80
2022/10/09 03:26:02;;;;;;;0.10;0.10;;;6.90;99.90;;;;;;5033221;28;20274;-80
2022/10/09 03:28:29;;;;;;;0.10;0.10;;;6.80;99.90;;;;;;5034374;28;20292;-80
2022/10/09 03:30:54;;;;;;;0.10;0.10;;;6.70;99.90;;;;;;5032280;28;20213;-80
2022/10/09 03:33:20;;;;;;;0.00;0.00;;;6.70;99.90;;;;;;5034973;28;20275;-80
2022/10/09 03:35:47;;;;;;;0.10;0.10;;;6.80;99.90;;;;;;5032241;28;20279;-80
2022/10/09 03:38:13;;;;;;;0.10;0.10;;;6.80;99.90;;;;;;5034277;28;20214;-80
2022/10/09 03:40:39;;;;;;;0.10;0.10;;;6.90;99.90;;;;;;5030676;28;20238;-79
2022/10/09 03:43:04;;;;;;;0.10;0.10;;;7.00;99.90;;;;;;5032100;28;20229;-80
2022/10/09 03:45:30;;;;;;;0.07;0.07;;;7.10;99.90;;;;;;5033384;28;20179;-80
2022/10/09 03:47:55;;;;;;;0.10;0.10;;;7.10;99.90;;;;;;5032528;28;20228;-80
2022/10/09 03:50:21;;;;;;;0.00;0.00;;;7.10;99.90;;;;;;5031781;28;20188;-80
2022/10/09 03:52:47;;;;;;;0.10;0.10;;;6.90;99.90;;;;;;5033319;28;20202;-79
2022/10/09 03:55:12;;;;;;;0.07;0.07;;;6.80;99.90;;;;;;5033015;28;20191;-80
2022/10/09 03:57:38;;;;;;;0.10;0.10;;;6.60;99.90;;;;;;5032605;28;20243;-80
2022/10/09 04:00:05;;;;;;;0.10;0.10;;;6.60;99.90;;;;;;5030064;28;20207;-80
2022/10/09 04:02:31;;;;;;;0.10;0.10;;;6.50;99.90;;;;;;5028613;28;20187;-80
2022/10/09 04:04:57;;;;;;;0.10;0.10;;;6.40;99.90;;;;;;5030803;28;20228;-80
2022/10/09 04:07:22;;;;;;;0.10;0.10;;;6.40;99.90;;;;;;5034959;28;20647;-80
2022/10/09 04:09:48;;;;;;;0.00;0.00;;;6.50;99.90;;;;;;5036939;28;21279;-80
2022/10/09 04:12:13;;;;;;;0.00;0.00;;;6.50;99.90;;;;;;5033499;28;20238;-80
2022/10/09 04:14:39;;;;;;;0.00;0.00;;;6.60;99.90;;;;;;5037966;28;20669;-80
2022/10/09 04:17:05;;;;;;;0.10;0.10;;;6.70;99.90;;;;;;5036179;28;20625;-80
2022/10/09 04:19:30;;;;;;;0.00;0.00;;;6.70;99.90;;;;;;5036507;28;20217;-80
2022/10/09 04:21:56;;;;;;;0.10;0.10;;;6.70;99.90;;;;;;5035345;28;20190;-80
2022/10/09 04:24:21;;;;;;;0.03;0.03;;;6.70;99.90;;;;;;5034447;28;20305;-80
2022/10/09 04:26:47;;;;;;;0.10;0.10;;;6.80;99.90;;;;;;5035960;28;20206;-80
2022/10/09 04:29:12;;;;;;;0.00;0.00;;;6.80;99.90;;;;;;5036709;28;20225;-80
2022/10/09 04:31:38;;;;;;;0.00;0.00;;;6.80;99.90;;;;;;5037587;28;20213;-80
2022/10/09 04:34:03;;;;;;;0.00;0.00;;;6.70;99.90;;;;;;5036931;28;20186;-80
2022/10/09 04:36:29;;;;;;;0.10;0.10;;;6.70;99.90;;;;;;5036924;28;20265;-80
2022/10/09 04:38:54;;;;;;;0.03;0.03;;;6.70;99.90;;;;;;5034816;28;20226;-80
2022/10/09 04:41:20;;;;;;;0.00;0.00;;;6.80;99.90;;;;;;5036189;28;20190;-80
2022/10/09 04:43:46;;;;;;;0.10;0.10;;;6.80;99.90;;;;;;5038818;28;20182;-80
2022/10/09 04:46:13;;;;;;;0.00;0.00;;;6.70;99.90;;;;;;5034940;28;20243;-81
2022/10/09 04:48:43;;;;;;;0.10;0.10;;;6.70;99.90;;;;;;5034917;28;20206;-80
2022/10/09 04:51:09;;;;;;;0.03;0.03;;;6.70;99.90;;;;;;5036397;28;20225;-80
2022/10/09 04:53:35;;;;;;;0.00;0.00;;;6.70;99.90;;;;;;5036711;28;20183;-80
2022/10/09 04:56:03;;;;;;;0.10;0.10;;;6.70;99.90;;;;;;5034435;28;20183;-80
2022/10/09 04:58:29;;;;;;;0.00;0.00;;;6.70;99.90;;;;;;5034630;28;20230;-79
2022/10/09 05:00:55;;;;;;;0.10;0.10;;;6.70;99.90;;;;;;5036764;28;20187;-80
2022/10/09 05:03:21;;;;;;;0.00;0.00;;;6.80;99.90;;;;;;5033447;28;20188;-80
2022/10/09 05:05:47;;;;;;;0.03;0.03;;;6.70;99.90;;;;;;5035568;28;20591;-80
2022/10/09 05:08:12;;;;;;;0.00;0.00;;;6.80;99.90;;;;;;5034140;28;20622;-79
2022/10/09 05:10:38;;;;;;;0.10;0.10;;;6.80;99.90;;;;;;5034870;28;20237;-80
2022/10/09 05:13:04;;;;;;;0.10;0.10;;;6.90;99.90;;;;;;5034226;28;20205;-80
2022/10/09 05:15:29;;;;;;;0.10;0.10;;;6.90;99.90;;;;;;5034760;28;20187;-79
2022/10/09 05:17:55;;;;;;;0.00;0.00;;;6.90;99.90;;;;;;5035167;28;20222;-81
2022/10/09 05:20:21;;;;;;;0.00;0.00;;;6.90;99.90;;;;;;5034059;28;20600;-80
2022/10/09 05:22:47;;;;;;;0.07;0.07;;;6.80;99.90;;;;;;5034496;28;20184;-82
2022/10/09 05:25:12;;;;;;;0.10;0.10;;;6.70;99.90;;;;;;5035214;28;20588;-81
2022/10/09 05:27:38;;;;;;;0.10;0.10;;;6.70;99.90;;;;;;5034742;28;20192;-81
2022/10/09 05:30:05;;;;;;;0.00;0.00;;;6.80;99.90;;;;;;5037938;28;20550;-81
2022/10/09 05:32:31;;;;;;;0.00;0.00;;;6.80;99.90;;;;;;5031282;28;20217;-81
2022/10/09 05:34:57;;;;;;;0.10;0.10;;;6.80;99.90;;;;;;5036794;28;20811;-81
2022/10/09 05:37:22;;;;;;;0.00;0.00;;;6.80;99.90;;;;;;5035389;28;21225;-82
2022/10/09 05:39:48;;;;;;;0.03;0.03;;;6.90;99.90;;;;;;5035173;28;21126;-81
2022/10/09 05:42:14;;;;;;;0.10;0.10;;;6.90;99.90;;;;;;5034210;28;20202;-80
2022/10/09 05:44:39;;;;;;;0.00;0.00;;;6.80;99.90;;;;;;5031781;28;20222;-80
2022/10/09 05:47:05;;;;;;;0.03;0.03;;;6.80;99.90;;;;;;5028814;28;20220;-80
2022/10/09 05:49:30;;;;;;;0.00;0.00;;;6.80;99.90;;;;;;5028102;28;20210;-80
2022/10/09 05:51:56;;;;;;;0.00;0.00;;;6.80;99.90;;;;;;5035584;28;20245;-80
2022/10/09 05:54:22;;;;;;;0.10;0.10;;;6.80;99.90;;;;;;5035949;28;20583;-80
2022/10/09 05:56:47;;;;;;;0.10;0.10;;;6.90;99.90;;;;;;5033639;28;20205;-80
2022/10/09 05:59:18;;;;;;;0.10;0.10;;;6.90;99.90;;;;;;5033875;28;20717;-80
2022/10/09 06:01:49;;;;;;;0.10;0.10;;;6.80;99.90;;;;;;5033937;28;20665;-80
2022/10/09 06:04:18;;;;;;;0.10;0.10;;;6.90;99.90;;;;;;5037272;28;20606;-80
2022/10/09 06:06:46;;;;;;;0.00;0.00;;;7.00;99.90;;;;;;5034315;28;20190;-80
2022/10/09 06:09:12;;;;;;;0.00;0.00;;;7.00;99.90;;;;;;5032529;28;20220;-81
2022/10/09 06:11:39;;;;;;;0.00;0.00;;;7.20;99.90;;;;;;5032505;28;20209;-80
2022/10/09 06:14:08;;;;;;;0.00;0.00;;;7.30;99.90;;;;;;5037811;28;20182;-80
2022/10/09 06:16:36;;;;;;;0.10;0.10;;;7.20;99.90;;;;;;5032742;28;20189;-80
2022/10/09 06:19:03;;;;;;;0.00;0.00;;;7.30;99.90;;;;;;5033252;28;20202;-80
2022/10/09 06:21:29;;;;;;;0.10;0.10;;;7.40;99.90;;;;;;5034399;28;20224;-80
2022/10/09 06:23:57;;;;;;;0.10;0.10;;;7.60;99.90;;;;;;5033511;28;20219;-80
2022/10/09 06:26:23;;;;;;;0.10;0.10;;;7.70;99.90;;;;;;5033994;28;20549;-80
2022/10/09 06:28:49;;;;;;;0.10;0.10;;;7.90;99.90;;;;;;5034232;28;20293;-80
2022/10/09 06:31:17;;;;;;;0.10;0.10;;;8.10;99.90;;;;;;5033676;28;20305;-80
2022/10/09 06:33:44;;;;;;;0.10;0.10;;;8.20;99.90;;;;;;5033832;28;20237;-81
2022/10/09 06:36:13;;;;;;;0.10;0.10;;;8.30;99.90;;;;;;5035990;28;20194;-80
2022/10/09 06:38:39;;;;;;;0.10;0.10;;;8.50;99.90;;;;;;5032956;28;20203;-80
2022/10/09 06:41:08;;;;;;;0.10;0.10;;;8.60;99.90;;;;;;5033837;28;20259;-81
2022/10/09 06:43:34;;;;;;;0.00;0.00;;;8.70;99.90;;;;;;5032488;28;20186;-79
2022/10/09 06:46:02;;;;;;;0.10;0.10;;;8.80;99.90;;;;;;5032938;28;20549;-80
2022/10/09 06:48:33;;;;;;;0.10;0.10;;;8.90;99.90;;;;;;5032906;28;20252;-80
2022/10/09 06:51:05;;;;;;;0.10;0.10;;;9.00;99.90;;;;;;5033898;28;20226;-80
2022/10/09 06:53:36;;;;;;;0.00;0.00;;;9.10;99.90;;;;;;5031922;28;20192;-80
2022/10/09 06:56:03;;;;;;;0.00;0.00;;;9.20;99.90;;;;;;5033028;28;20229;-80
2022/10/09 06:58:28;;;;;;;0.10;0.10;;;9.30;99.90;;;;;;5033874;28;20277;-81
2022/10/09 07:01:12;;;;;;;0.10;0.10;;;9.40;99.90;;;;;;5034264;28;20601;-80
2022/10/09 07:03:40;;;;;;;0.10;0.10;;;9.50;99.90;;;;;;5034461;28;20750;-80
2022/10/09 07:06:08;;;;;;;0.00;0.00;;;9.50;99.90;;;;;;5033549;28;20569;-81
2022/10/09 07:08:34;;;;;;;0.03;0.03;;;9.50;99.90;;;;;;5031538;28;20234;-81
2022/10/09 07:11:07;;;;;;;0.10;0.10;;;9.70;99.90;;;;;;5029836;28;20222;-81
2022/10/09 07:13:32;;;;;;;0.00;0.00;;;9.80;99.90;;;;;;5031137;28;20207;-82
2022/10/09 07:15:58;;;;;;;0.00;0.00;;;9.90;99.90;;;;;;5034218;28;20212;-80
2022/10/09 07:18:23;;;;;;;0.00;0.00;;;10.10;99.90;;;;;;5030543;28;20245;-81
2022/10/09 07:20:49;;;;;;;0.10;0.10;;;10.20;99.90;;;;;;5031119;28;20175;-80
2022/10/09 07:23:14;;;;;;;0.10;0.10;;;10.40;99.90;;;;;;5031702;28;20196;-80
2022/10/09 07:25:40;;;;;;;0.10;0.10;;;10.50;99.90;;;;;;5033898;28;20197;-81
2022/10/09 07:28:05;;;;;;;0.00;0.00;;;10.60;99.90;;;;;;5035175;28;20248;-81
2022/10/09 07:30:31;;;;;;;0.10;0.10;;;10.70;99.90;;;;;;5034595;28;20185;-80
2022/10/09 07:32:56;;;;;;;0.03;0.03;;;10.90;99.90;;;;;;5034403;28;20205;-80
2022/10/09 07:35:22;;;;;;;0.00;0.00;;;11.10;99.90;;;;;;5031320;28;20239;-80
2022/10/09 07:37:47;;;;;;;0.10;0.10;;;11.20;99.90;;;;;;5030837;28;21353;-81
2022/10/09 07:40:13;;;;;;;0.10;0.10;;;11.40;99.90;;;;;;5032250;28;20188;-80
2022/10/09 07:42:38;;;;;;;0.10;0.10;;;11.50;99.90;;;;;;5032369;28;20509;-81
2022/10/09 07:45:05;;;;;;;0.10;0.10;;;11.70;99.90;;;;;;5033202;28;20192;-81
2022/10/09 07:47:30;;;;;;;0.10;0.10;;;11.80;99.90;;;;;;5030947;28;20188;-80
2022/10/09 07:49:56;;;;;;;0.10;0.10;;;12.00;99.90;;;;;;5031775;28;20178;-81
2022/10/09 07:52:21;;;;;;;0.10;0.10;;;12.00;99.90;;;;;;4988340;28;1318653;-81
2022/10/09 07:54:47;;;;;;;0.00;0.00;;;12.20;99.90;;;;;;5033117;28;20651;-80
2022/10/09 07:57:12;;;;;;;0.10;0.10;;;12.30;99.90;;;;;;5031447;28;20196;-81
2022/10/09 07:59:38;;;;;;;0.10;0.10;;;12.00;99.90;;;;;;5032689;28;20206;-81
2022/10/09 08:02:03;;;;;;;0.10;0.10;;;11.90;99.90;;;;;;5033366;28;20194;-80
2022/10/09 08:04:29;;;;;;;0.10;0.10;;;12.30;99.90;;;;;;5022689;28;20184;-81
2022/10/09 08:06:57;;;;;;;0.00;0.00;;;11.80;99.90;;;;;;5028455;28;20270;-80
2022/10/09 08:09:22;;;;;;;0.00;0.00;;;12.20;99.90;;;;;;5026602;28;20256;-80
2022/10/09 08:11:48;;;;;;;0.10;0.10;;;12.60;99.90;;;;;;5030617;28;20620;-80
2022/10/09 08:14:14;;;;;;;0.10;0.10;;;12.70;99.90;;;;;;5030466;28;20190;-80
2022/10/09 08:16:40;;;;;;;0.10;0.10;;;13.10;99.90;;;;;;5013338;28;20183;-80
2022/10/09 08:19:05;;;;;;;0.10;0.10;;;13.10;99.90;;;;;;5011858;28;20335;-81
2022/10/09 08:21:31;;;;;;;0.10;0.10;;;13.30;99.90;;;;;;5025144;28;20186;-81
2022/10/09 08:23:58;;;;;;;0.10;0.10;;;13.40;99.90;;;;;;5027493;28;20189;-81
2022/10/09 08:26:29;;;;;;;0.10;0.10;;;13.40;99.90;;;;;;5030432;28;20193;-81
2022/10/09 08:29:01;;;;;;;0.10;0.10;;;13.80;99.90;;;;;;5033600;28;20198;-81
2022/10/09 08:31:27;;;;;;;0.10;0.10;;;13.90;99.90;;;;;;5033718;28;20213;-81
2022/10/09 08:33:54;;;;;;;0.10;0.10;;;13.90;99.90;;;;;;5028814;28;20194;-81
2022/10/09 08:36:20;;;;;;;0.10;0.10;;;13.50;99.90;;;;;;5032414;28;20671;-81
2022/10/09 08:38:46;;;;;;;0.10;0.10;;;13.80;99.90;;;;;;5031376;28;20241;-80
2022/10/09 08:41:17;;;;;;;0.03;0.03;;;13.70;99.90;;;;;;5031781;28;20324;-80
2022/10/09 08:43:50;;;;;;;0.10;0.10;;;13.70;99.90;;;;;;5031392;28;20441;-81
2022/10/09 08:46:28;;;;;;;0.10;0.10;;;13.70;99.90;;;;;;5031334;28;20194;-81
2022/10/09 08:48:54;;;;;;;0.10;0.10;;;13.80;99.90;;;;;;5031058;28;20860;-81
2022/10/09 08:51:23;;;;;;;0.10;0.10;;;13.80;99.90;;;;;;5032882;28;20212;-81
2022/10/09 08:53:52;;;;;;;0.10;0.10;;;14.00;99.90;;;;;;5030955;28;20182;-80
2022/10/09 08:56:18;;;;;;;0.10;0.10;;;13.70;99.90;;;;;;5029104;28;20184;-81
2022/10/09 08:58:44;;;;;;;0.00;0.00;;;13.90;99.90;;;;;;5032575;28;20205;-81
2022/10/09 09:01:18;;;;;;;0.10;0.10;;;13.80;99.90;;;;;;5034940;28;20183;-81
2022/10/09 09:03:56;;;;;;;0.10;0.10;;;13.90;99.90;;;;;;5031367;28;21138;-81
2022/10/09 09:06:27;;;;;;;0.10;0.10;;;14.00;99.90;;;;;;5036185;28;21313;-80
2022/10/09 09:09:28;;;;;;;0.07;0.07;;;14.20;99.90;;;;;;5036499;28;20227;-81
2022/10/09 09:12:18;;;;;;;0.10;0.10;;;14.60;99.90;;;;;;5031738;28;20211;-81
2022/10/09 09:15:02;;;;;;;0.00;0.00;;;14.40;99.90;;;;;;5032274;28;20178;-81
2022/10/09 09:17:54;;;;;;;0.07;0.07;;;14.50;99.90;;;;;;5036369;28;20191;-81
2022/10/09 09:20:25;;;;;;;0.10;0.10;;;14.60;99.90;;;;;;5034960;28;20614;-82
2022/10/09 09:22:51;;;;;;;0.10;0.10;;;14.60;99.90;;;;;;5036546;28;20660;-81
2022/10/09 09:25:20;;;;;;;0.10;0.10;;;13.70;99.90;;;;;;5033718;28;20210;-81
2022/10/09 09:27:46;;;;;;;0.10;0.10;;;13.80;99.90;;;;;;5032805;28;21336;-81
2022/10/09 09:30:14;;;;;;;0.10;0.10;;;14.10;99.90;;;;;;5033364;28;20198;-81
2022/10/09 09:32:55;;;;;;;0.10;0.10;;;14.40;99.90;;;;;;5033948;28;20556;-81
2022/10/09 09:35:30;;;;;;;0.03;0.03;;;14.30;99.90;;;;;;5031314;28;20239;-81
2022/10/09 09:37:56;;;;;;;0.10;0.10;;;14.50;99.90;;;;;;5048247;28;20205;-81
2022/10/09 09:40:27;;;;;;;0.10;0.10;;;14.30;99.90;;;;;;5027957;28;20186;-81
2022/10/09 09:42:55;;;;;;;0.10;0.10;;;14.60;99.90;;;;;;5027025;28;20292;-81
2022/10/09 09:45:23;;;;;;;0.10;0.10;;;14.10;99.90;;;;;;5029351;28;20193;-81
2022/10/09 09:48:08;;;;;;;0.10;0.10;;;14.50;99.90;;;;;;5031279;28;20326;-81
2022/10/09 09:50:38;;;;;;;0.10;0.10;;;14.80;99.90;;;;;;5031072;28;20199;-81
2022/10/09 09:53:10;;;;;;;0.10;0.10;;;14.70;99.90;;;;;;5029497;28;20322;-80
2022/10/09 09:55:36;;;;;;;0.00;0.00;;;14.60;99.90;;;;;;5029169;28;20187;-81
2022/10/09 09:58:13;;;;;;;0.10;0.10;;;15.10;99.90;;;;;;5028832;28;20418;-81
2022/10/09 10:00:39;;;;;;;0.10;0.10;;;14.90;99.90;;;;;;5032575;28;20178;-80
2022/10/09 10:03:15;;;;;;;0.10;0.10;;;15.00;99.90;;;;;;5030881;28;20191;-81
2022/10/09 10:05:43;;;;;;;0.10;0.10;;;15.40;99.90;;;;;;5031938;28;20669;-81
2022/10/09 10:08:14;;;;;;;0.10;0.10;;;15.10;99.90;;;;;;5032613;28;20274;-81
2022/10/09 10:10:45;;;;;;;0.10;0.10;;;14.70;99.90;;;;;;5033371;28;20211;-81
2022/10/09 10:13:24;;;;;;;0.10;0.10;;;15.40;99.90;;;;;;5034426;28;20224;-81
2022/10/09 10:15:55;;;;;;;0.10;0.10;;;15.60;99.90;;;;;;5034083;28;20677;-81
2022/10/09 10:18:23;;;;;;;0.00;0.00;;;15.00;99.90;;;;;;5031284;28;20238;-81
2022/10/09 10:20:53;;;;;;;0.10;0.10;;;15.00;99.90;;;;;;5032843;28;20665;-81
2022/10/09 10:23:25;;;;;;;2.83;2.73;;;15.30;99.90;;;;;;5034329;28;20187;-80
2022/10/09 10:25:55;;;;;;;0.10;0.10;;;15.10;99.90;;;;;;5031674;28;20179;-81
2022/10/09 10:28:29;;;;;;;0.10;0.10;;;15.50;99.90;;;;;;5033792;28;20258;-81
2022/10/09 10:30:56;;;;;;;0.10;0.10;;;15.20;99.90;;;;;;5030937;28;20275;-80
2022/10/09 10:33:26;;;;;;;0.10;0.10;;;15.20;99.90;;;;;;5033142;28;20245;-80
2022/10/09 10:35:55;;;;;;;0.10;0.10;;;15.10;99.90;;;;;;5035190;28;20593;-81
2022/10/09 10:38:43;;;;;;;0.00;0.00;;;14.90;99.90;;;;;;5032781;28;20211;-81
2022/10/09 10:41:32;;;;;;;0.10;0.10;;;15.10;99.90;;;;;;5031942;28;20187;-80
2022/10/09 10:44:06;;;;;;;0.10;0.10;;;15.30;99.90;;;;;;5029753;28;20269;-81
2022/10/09 10:46:40;;;;;;;0.07;0.07;;;15.70;99.90;;;;;;5033956;28;20179;-81
2022/10/09 10:49:10;;;;;;;0.10;0.10;;;15.50;99.90;;;;;;5034247;28;20207;-81
2022/10/09 10:51:41;;;;;;;0.10;0.10;;;15.60;99.90;;;;;;5033438;28;20220;-81
2022/10/09 10:54:10;;;;;;;0.10;0.10;;;15.80;99.90;;;;;;5028182;28;20182;-81
2022/10/09 10:56:59;;;;;;;0.10;0.10;;;15.30;99.90;;;;;;5034343;28;20185;-81
2022/10/09 10:59:43;;;;;;;0.10;0.10;;;15.50;99.90;;;;;;5030486;28;20241;-80
2022/10/09 11:02:28;;;;;;;0.10;0.10;;;15.50;99.90;;;;;;5031395;28;20185;-81
2022/10/09 11:05:04;;;;;;;0.10;0.10;;;15.70;99.90;;;;;;5034420;28;21351;-81
2022/10/09 11:07:48;;;;;;;0.10;0.10;;;15.90;99.90;;;;;;5032028;28;20210;-81
2022/10/09 11:10:20;;;;;;;0.10;0.10;;;15.80;99.90;;;;;;5030156;28;20199;-80
2022/10/09 11:13:36;;;;;;;0.00;0.00;;;16.00;99.90;;;;;;5030748;28;20215;-81
2022/10/09 11:16:31;;;;;;;0.10;0.10;;;16.00;99.90;;;;;;5011678;28;20952;-81
2022/10/09 11:19:32;;;;;;;0.10;0.10;;;16.00;99.90;;;;;;5032015;28;20283;-81
2022/10/09 11:22:12;;;;;;;0.10;0.10;;;16.40;99.90;;;;;;5023185;28;20236;-81
2022/10/09 11:24:58;;;;;;;0.10;0.10;;;16.20;99.90;;;;;;5033815;28;20186;-81
2022/10/09 11:27:54;;;;;;;0.10;0.10;;;15.90;99.90;;;;;;5033683;28;20566;-81
2022/10/09 11:30:20;;;;;;;0.10;0.10;;;15.70;99.90;;;;;;5032823;28;20573;-81
2022/10/09 11:33:35;;;;;;;0.10;0.10;;;15.60;99.90;;;;;;5031815;28;20598;-80
2022/10/09 11:36:15;;;;;;;0.10;0.10;;;16.40;99.90;;;;;;5012121;28;20390;-80
2022/10/09 11:38:51;;;;;;;0.10;0.10;;;16.70;99.90;;;;;;5033047;28;20204;-80
2022/10/09 11:41:18;;;;;;;0.10;0.10;;;16.60;99.90;;;;;;5033300;28;20188;-80
2022/10/09 11:44:21;;;;;;;0.10;0.10;;;16.50;99.90;;;;;;5031181;28;20584;-80
2022/10/09 11:47:11;;;;;;;0.10;0.10;;;16.60;99.90;;;;;;5027996;28;20216;-80
2022/10/09 11:49:56;;;;;;;0.10;0.10;;;16.80;99.90;;;;;;5036629;28;20205;-81
2022/10/09 11:52:35;;;;;;;0.10;0.10;;;16.30;99.90;;;;;;5035561;28;20217;-81
2022/10/09 11:55:21;;;;;;;0.10;0.10;;;16.80;99.90;;;;;;5029772;28;20303;-81
2022/10/09 11:57:47;;;;;;;0.10;0.10;;;16.80;99.90;;;;;;5035397;28;20201;-81
2022/10/09 12:00:13;;;;;;;0.10;0.10;;;16.90;99.90;;;;;;5034226;28;20208;-81
2022/10/09 12:02:40;;;;;;;0.10;0.10;;;16.90;99.90;;;;;;5034548;28;20200;-81
2022/10/09 12:05:42;;;;;;;0.10;0.10;;;17.00;99.90;;;;;;5034454;28;20201;-81
2022/10/09 12:08:14;;;;;;;0.10;0.10;;;17.40;99.90;;;;;;5030009;28;20750;-81
2022/10/09 12:11:14;;;;;;;0.10;0.10;;;17.50;99.90;;;;;;5033197;28;20244;-81
2022/10/09 12:14:05;;;;;;;0.10;0.10;;;17.30;99.90;;;;;;5032795;28;20231;-81
2022/10/09 12:16:35;;;;;;;0.10;0.10;;;16.80;99.90;;;;;;5029603;28;20206;-80
2022/10/09 12:19:29;;;;;;;0.10;0.10;;;16.70;99.90;;;;;;5032001;28;20262;-81
2022/10/09 12:22:17;;;;;;;0.10;0.10;;;16.90;99.90;;;;;;5032608;28;20706;-81
2022/10/09 12:24:49;;;;;;;0.10;0.10;;;17.20;99.90;;;;;;5032031;28;20181;-81
2022/10/09 12:27:23;;;;;;;0.10;0.10;;;17.30;99.90;;;;;;5035079;28;20189;-81
2022/10/09 12:30:15;;;;;;;0.10;0.10;;;16.80;99.90;;;;;;5033957;28;20228;-81
2022/10/09 12:32:47;;;;;;;0.10;0.10;;;16.80;99.90;;;;;;5030539;28;20224;-81
2022/10/09 12:35:38;;;;;;;0.10;0.10;;;17.10;99.90;;;;;;5033756;28;20197;-82
2022/10/09 12:38:15;;;;;;;0.10;0.10;;;17.30;99.90;;;;;;5029332;28;20227;-83
2022/10/09 12:40:45;;;;;;;0.10;0.10;;;17.10;99.90;;;;;;5033106;28;20292;-82
2022/10/09 12:43:16;;;;;;;0.10;0.10;;;17.10;99.90;;;;;;5036275;28;20186;-82
2022/10/09 12:45:44;;;;;;;0.10;0.10;;;17.40;99.90;;;;;;5034552;28;20193;-83
2022/10/09 12:48:12;;;;;;;0.10;0.10;;;17.50;99.90;;;;;;5033172;28;20259;-80
2022/10/09 12:50:37;;;;;;;0.10;0.10;;;17.50;99.90;;;;;;5035826;28;20193;-80
2022/10/09 12:53:11;;;;;;;0.10;0.10;;;17.40;99.90;;;;;;5034518;28;20228;-80
2022/10/09 12:55:47;;;;;;;0.10;0.10;;;17.60;99.90;;;;;;5033600;28;20704;-80
2022/10/09 12:58:23;;;;;;;0.10;0.10;;;17.70;99.90;;;;;;5035261;28;20197;-80
2022/10/09 13:00:52;;;;;;;0.10;0.10;;;17.60;99.90;;;;;;5035143;28;20184;-80
2022/10/09 13:03:35;;;;;;;0.10;0.10;;;17.40;99.90;;;;;;5034458;28;20196;-80
2022/10/09 13:06:03;;;;;;;0.10;0.10;;;17.20;99.90;;;;;;5034933;28;20221;-80
2022/10/09 13:08:31;;;;;;;0.10;0.10;;;17.20;99.90;;;;;;5033657;28;20744;-80
2022/10/09 13:11:19;;;;;;;0.10;0.10;;;17.50;99.90;;;;;;5034093;28;20277;-81